Terminal Aerodrome Forecast
Issued by NWS

Home | Current Version | Previous Version | Text Only | Print | Product List | Glossary Off
Versions: 1 2 3 4 5 6 7 8 9 10 11 12 13 14 15 16

000
FTUS43 KICT 252300 AAB
TAFRSL
TAF AMD
KRSL 252304Z 2523/2618 11013G20KT P6SM VCTS SCT080CB
      TEMPO 2523/2602 VRB25KT 5SM TSRA BKN050CB
     FM260600 01010KT P6SM VCTS BKN060CB OVC090
     FM261100 04008KT P6SM BKN150=

USA.gov is the U.S. government's official web portal to all federal, state and local government web resources and services.